Flight Track Log - Related Links

Times and Time Zones

All times are in EDT time to prevent confusion due to time zone crossing. See the AAL297 flight status page for this flight to view local times or setup timezone preferences in your user account.

Time Position Orientation Groundspeed Altitude Reporting Facility
EDT Latitude Longitude Course Direction KTS MPH feet Rate Location/Type
Sat 02:40:35 PM 32.9170 -97.0540 358° North 162 186 1,700  Level FlightAware ADS-B
Sat 02:40:47 PM 32.9270 -97.0540 360° North 179 206 1,900 1,400 Climbing FlightAware ADS-B
Sat 02:41:05 PM 32.9420 -97.0580 347° North 209 241 2,400 1,714 Climbing FlightAware ADS-B
Sat 02:41:29 PM 32.9660 -97.0670 343° North 240 276 3,100 2,464 Climbing FlightAware ADS-B
Sat 02:42:01 PM 33.0000 -97.0870 334° Northwest 262 302 4,700 2,864 Climbing FlightAware ADS-B
Sat 02:42:13 PM 33.0070 -97.1020 299° West 271 312 5,200 2,500 Climbing FlightAware ADS-B
Sat 02:42:25 PM 33.0090 -97.1200 278° West 282 325 5,700 2,308 Climbing FlightAware ADS-B
Sat 02:42:52 PM 33.0060 -97.1620 265° West 291 335 6,700 2,077 Climbing FlightAware ADS-B
Sat 02:43:17 PM 33.0020 -97.2030 263° West 306 352 7,500 2,038 Climbing FlightAware ADS-B
Sat 02:43:45 PM 32.9910 -97.2500 254° West 316 364 8,500 2,464 Climbing FlightAware ADS-B
Sat 02:44:13 PM 32.9740 -97.2950 246° West 322 371 9,800 3,094 Climbing FlightAware ADS-B
Sat 02:44:49 PM 32.9540 -97.3520 247° West 313 360 11,800 2,634 Climbing FlightAware ADS-B
Sat 02:45:35 PM 32.9280 -97.4280 248° West 337 388 13,400 1,674 Climbing FlightAware ADS-B
Sat 02:46:15 PM 32.9020 -97.5010 247° West 376 433 14,200 1,500 Climbing FlightAware ADS-B
Sat 02:46:59 PM 32.8710 -97.5860 247° West 392 451 15,500 2,500 Climbing FlightAware ADS-B
Sat 02:47:39 PM 32.8430 -97.6630 247° West 369 425 17,700 2,651 Climbing FlightAware ADS-B
Sat 02:48:25 PM 32.8120 -97.7490 247° West 367 422 19,300 1,884 Climbing FlightAware ADS-B
Sat 02:49:05 PM 32.7860 -97.8230 247° West 375 432 20,400 1,714 Climbing FlightAware ADS-B
Sat 02:49:49 PM 32.7550 -97.9070 246° West 378 435 21,700 1,643 Climbing FlightAware ADS-B
Sat 02:50:29 PM 32.7280 -97.9860 248° West 386 444 22,700 1,098 Climbing FlightAware ADS-B
Sat 02:51:11 PM 32.7120 -98.0710 257° West 390 449 23,200 1,000 Climbing FlightAware ADS-B
Sat 02:51:47 PM 32.7020 -98.1460 261° West 399 459 24,000 929 Climbing FlightAware ADS-B
Sat 02:52:35 PM 32.6890 -98.2570 262° West 432 497 24,500 886 Climbing FlightAware ADS-B
Sat 02:53:15 PM 32.6760 -98.3530 261° West 445 512 25,300 1,256 Climbing FlightAware ADS-B
Sat 02:54:01 PM 32.6620 -98.4650 262° West 456 525 26,300 1,256 Climbing FlightAware ADS-B
Sat 02:54:41 PM 32.6490 -98.5630 261° West 464 534 27,100 1,357 Climbing FlightAware ADS-B
Sat 02:55:25 PM 32.6350 -98.6740 262° West 469 540 28,200 1,395 Climbing FlightAware ADS-B
Sat 02:56:07 PM 32.6210 -98.7790 261° West 474 545 29,100 1,367 Climbing FlightAware ADS-B
Sat 02:56:44 PM 32.6080 -98.8800 261° West 473 544 30,000 2,169 Climbing FlightAware ADS-B
Sat 02:57:30 PM 32.6020 -98.9930 266° West 449 517 32,100 2,302 Climbing FlightAware ADS-B
Sat 02:58:10 PM 32.5970 -99.0920 267° West 444 511 33,300 1,465 Climbing FlightAware ADS-B
Sat 02:58:56 PM 32.5890 -99.2020 265° West 448 516 34,200 1,364 Climbing FlightAware ADS-B
Sat 02:59:38 PM 32.5820 -99.3060 265° West 442 509 35,300 1,481 Climbing FlightAware ADS-B
Sat 03:00:17 PM 32.5750 -99.3970 265° West 437 503 36,200 1,390 Climbing FlightAware ADS-B
Sat 03:01:00 PM 32.5680 -99.5000 265° West 432 497 37,200 1,143 Climbing FlightAware ADS-B
Sat 03:01:41 PM 32.5620 -99.5920 266° West 430 495 37,800 495 Climbing FlightAware ADS-B
Sat 03:02:37 PM 32.5530 -99.7100 265° West 435 501 38,000 112 Climbing FlightAware ADS-B
Sat 03:03:28 PM 32.5430 -99.8470 265° West 436 502 38,000  Level FlightAware ADS-B
Sat 03:04:17 PM 32.5350 -99.9670 266° West 434 499 38,000  Level FlightAware ADS-B
Sat 03:04:57 PM 32.5290 -100.0610 266° West 433 498 38,000  Level FlightAware ADS-B
Sat 03:05:40 PM 32.5220 -100.1630 265° West 433 498 38,000  Level FlightAware ADS-B
Sat 03:06:21 PM 32.5150 -100.2580 265° West 434 499 38,000  Level FlightAware ADS-B
Sat 03:06:57 PM 32.5090 -100.3460 265° West 435 501 38,000  Level FlightAware ADS-B
Sat 03:07:33 PM 32.5030 -100.4290 265° West 436 502 38,000  Level FlightAware ADS-B
Sat 03:08:11 PM 32.4970 -100.5140 265° West 437 503 38,000  Level FlightAware ADS-B
Sat 03:08:57 PM 32.4880 -100.6290 265° West 439 505 38,000  Level FlightAware ADS-B
Sat 03:09:27 PM 32.4830 -100.7010 265° West 440 506 38,000  Level FlightAware ADS-B
Sat 03:10:11 PM 32.4750 -100.8060 265° West 441 507 38,000  Level FlightAware ADS-B
Sat 03:11:08 PM 32.4650 -100.9390 265° West 441 507 38,000  Level FlightAware ADS-B
Sat 03:11:39 PM 32.4600 -101.0100 265° West 441 507 38,000  Level FlightAware ADS-B
Sat 03:12:27 PM 32.4510 -101.1350 265° West 442 509 38,000  Level FlightAware ADS-B
Sat 03:13:07 PM 32.4430 -101.2300 264° West 442 509 38,000  Level FlightAware ADS-B
Sat 03:13:44 PM 32.4360 -101.3170 265° West 441 507 38,000  Level FlightAware ADS-B
Sat 03:14:33 PM 32.4270 -101.4390 265° West 442 509 38,000  Level FlightAware ADS-B
Sat 03:15:13 PM 32.4190 -101.5340 264° West 442 509 38,000  Level FlightAware ADS-B
Sat 03:15:42 PM 32.4140 -101.6010 265° West 442 509 38,000  Level FlightAware ADS-B
Sat 03:16:27 PM 32.4050 -101.7010 264° West 442 509 38,000  Level FlightAware ADS-B
Sat 03:17:14 PM 32.3960 -101.8180 265° West 442 509 38,000  Level FlightAware ADS-B
Sat 03:17:52 PM 32.3890 -101.9060 265° West 442 509 38,000  Level FlightAware ADS-B
Sat 03:18:28 PM 32.3820 -101.9800 264° West 442 509 38,000  Level FlightAware ADS-B
Sat 03:19:04 PM 32.3760 -102.0540 265° West 442 509 38,000  Level FlightAware ADS-B
Sat 03:19:53 PM 32.3670 -102.1540 264° West 442 509 38,000  Level FlightAware ADS-B
Sat 03:20:28 PM 32.3610 -102.2260 264° West 442 509 38,000  Level FlightAware ADS-B
Sat 03:21:04 PM 32.3540 -102.2990 264° West 442 509 38,000  Level FlightAware ADS-B
Sat 03:22:04 PM 32.3430 -102.4220 264° West 442 509 38,000  Level FlightAware ADS-B
Sat 03:23:06 PM 32.3320 -102.5490 264° West 442 509 38,000  Level FlightAware ADS-B
Sat 03:23:40 PM 32.3260 -102.6180 264° West 442 509 38,000  Level FlightAware ADS-B
Sat 03:24:29 PM 32.3170 -102.7190 264° West 442 509 38,000  Level FlightAware ADS-B
Sat 03:25:06 PM 32.3100 -102.7940 264° West 442 509 38,000  Level FlightAware ADS-B
Sat 03:25:42 PM 32.3030 -102.8680 264° West 442 509 38,000  Level FlightAware ADS-B
Sat 03:26:18 PM 32.2970 -102.9420 265° West 442 509 38,000  Level FlightAware ADS-B
Sat 03:27:06 PM 32.2880 -103.0400 264° West 442 509 38,000  Level FlightAware ADS-B
Sat 03:28:37 PM 32.2531 -103.4533 264° West 447 514 38,000  Level Albuquerque Center
Sat 03:29:38 PM 32.2394 -103.5994 264° West 449 517 38,000  Level Albuquerque Center
Sat 03:30:40 PM 32.2272 -103.7456 264° West 448 516 38,000  Level Albuquerque Center
Sat 03:31:41 PM 32.2144 -103.8933 264° West 453 521 38,000  Level Albuquerque Center
Sat 03:32:43 PM 32.1958 -104.0631 263° West 450 518 38,000  Level Albuquerque Center
Sat 03:33:45 PM 32.1819 -104.2108 264° West 453 521 38,000  Level Albuquerque Center
Sat 03:34:46 PM 32.2017 -104.3553 279° West 448 516 38,000  Level Albuquerque Center
Sat 03:35:48 PM 32.2264 -104.4997 281° West 450 518 38,000  Level Albuquerque Center
Sat 03:36:50 PM 32.2539 -104.6428 283° West 449 517 38,000  Level Albuquerque Center
Sat 03:37:51 PM 32.2783 -104.7861 281° West 448 516 38,000  Level Albuquerque Center
Sat 03:38:53 PM 32.3103 -104.9597 282° West 450 518 38,000  Level Albuquerque Center
Sat 03:39:54 PM 32.3353 -105.1042 282° West 451 519 38,000  Level Albuquerque Center
Sat 03:40:56 PM 32.3614 -105.2486 282° West 451 519 38,000  Level Albuquerque Center
Sat 03:47:11 PM 32.5180 -106.1650 282° West 459 528 38,000  Level FlightAware ADS-B
Sat 03:47:52 PM 32.5350 -106.2630 282° West 460 529 38,000  Level FlightAware ADS-B
Sat 03:48:31 PM 32.5520 -106.3670 281° West 460 529 38,000  Level FlightAware ADS-B
Sat 03:49:20 PM 32.5680 -106.4680 281° West 460 529 38,000  Level FlightAware ADS-B
Sat 03:49:56 PM 32.5850 -106.5660 282° West 459 528 38,000  Level FlightAware ADS-B
Sat 03:50:53 PM 32.6090 -106.7160 281° West 458 527 38,000  Level FlightAware ADS-B
Sat 03:51:29 PM 32.6230 -106.8040 281° West 457 526 38,000  Level FlightAware ADS-B
Sat 03:52:24 PM 32.6450 -106.9390 281° West 457 526 38,000  Level FlightAware ADS-B
Sat 03:53:11 PM 32.6610 -107.0420 280° West 456 525 38,000  Level FlightAware ADS-B
Sat 03:53:59 PM 32.6760 -107.1430 280° West 456 525 38,000  Level FlightAware ADS-B
Sat 03:54:35 PM 32.6870 -107.2180 280° West 456 525 38,000  Level FlightAware ADS-B
Sat 03:55:23 PM 32.7020 -107.3190 280° West 456 525 38,000  Level FlightAware ADS-B
Sat 03:55:59 PM 32.7130 -107.3940 280° West 456 525 38,000  Level FlightAware ADS-B
Sat 03:56:47 PM 32.7280 -107.4950 280° West 456 525 38,000  Level FlightAware ADS-B
Sat 03:57:23 PM 32.7390 -107.5710 280° West 456 525 38,000  Level FlightAware ADS-B
Sat 03:58:24 PM 32.7580 -107.6990 280° West 456 525 38,000  Level FlightAware ADS-B
Sat 03:59:00 PM 32.7700 -107.7740 281° West 456 525 38,000  Level FlightAware ADS-B
Sat 03:59:48 PM 32.7840 -107.8750 279° West 456 525 38,000  Level FlightAware ADS-B
Sat 04:00:24 PM 32.7960 -107.9510 281° West 456 525 38,000  Level FlightAware ADS-B
Sat 04:01:13 PM 32.8110 -108.0540 280° West 456 525 38,000  Level FlightAware ADS-B
Sat 04:01:50 PM 32.8220 -108.1320 280° West 456 525 38,000  Level FlightAware ADS-B
Sat 04:02:38 PM 32.8370 -108.2320 280° West 456 525 38,000  Level FlightAware ADS-B
Sat 04:03:17 PM 32.8110 -108.5570 265° West 459 528 38,000  Level FlightAware ADS-B
Sat 04:04:01 PM 32.8080 -108.6650 268° West 451 519 38,000  Level FlightAware ADS-B
Sat 04:04:42 PM 32.8060 -108.7650 269° West 443 510 38,000  Level FlightAware ADS-B
Sat 04:05:31 PM 32.8310 -108.8800 285° West 440 506 38,000  Level FlightAware ADS-B
Sat 04:06:13 PM 32.8690 -108.9730 296° West 440 506 38,000  Level FlightAware ADS-B
Sat 04:06:53 PM 32.9020 -109.0540 296° West 440 506 38,000  Level FlightAware ADS-B
Sat 04:07:53 PM 32.9520 -109.1790 296° West 440 506 38,000  Level FlightAware ADS-B
Sat 04:08:33 PM 32.9840 -109.2790 291° West 440 506 38,000  Level FlightAware ADS-B
Sat 04:09:20 PM 33.0200 -109.3860 292° West 443 510 38,000  Level FlightAware ADS-B
Sat 04:10:05 PM 33.0560 -109.4880 293° West 445 512 38,000  Level FlightAware ADS-B
Sat 04:10:47 PM 33.0850 -109.5850 290° West 445 512 38,000  Level FlightAware ADS-B
Sat 04:11:27 PM 33.1090 -109.6780 287° West 446 513 38,000  Level FlightAware ADS-B
Sat 04:12:11 PM 33.1370 -109.7820 288° West 446 513 38,000  Level FlightAware ADS-B
Sat 04:12:45 PM 33.1560 -109.8610 286° West 445 512 38,000  Level FlightAware ADS-B
Sat 04:13:29 PM 33.1760 -109.9670 283° West 446 513 38,000  Level FlightAware ADS-B
Sat 04:14:08 PM 33.1930 -110.0610 282° West 445 512 38,000  Level FlightAware ADS-B
Sat 04:14:44 PM 33.2090 -110.1460 283° West 447 514 38,000  Level FlightAware ADS-B
Sat 04:15:24 PM 33.2280 -110.2420 283° West 447 514 38,000  Level FlightAware ADS-B
Sat 04:16:04 PM 33.2460 -110.3400 282° West 446 513 38,000  Level FlightAware ADS-B
Sat 04:16:48 PM 33.2660 -110.4430 283° West 445 512 38,000  Level FlightAware ADS-B
Sat 04:17:33 PM 33.2870 -110.5500 283° West 444 511 38,000  Level FlightAware ADS-B
Sat 04:18:10 PM 33.3010 -110.6400 281° West 443 510 38,000  Level FlightAware ADS-B
Sat 04:18:54 PM 33.3150 -110.7460 279° West 442 509 38,000  Level FlightAware ADS-B
Sat 04:19:43 PM 33.3300 -110.8590 279° West 442 509 38,000  Level FlightAware ADS-B
Sat 04:20:32 PM 33.3550 -110.9780 284° West 449 517 38,000  Level FlightAware ADS-B
Sat 04:21:10 PM 33.3750 -111.0690 285° West 454 522 38,000  Level FlightAware ADS-B
Sat 04:21:54 PM 33.3970 -111.1790 284° West 459 528 38,000  Level FlightAware ADS-B
Sat 04:22:35 PM 33.4170 -111.2810 283° West 462 532 38,000  Level FlightAware ADS-B
Sat 04:23:19 PM 33.4410 -111.3920 285° West 462 532 38,000  Level FlightAware ADS-B
Sat 04:23:59 PM 33.4610 -111.4890 284° West 462 532 38,000  Level FlightAware ADS-B
Sat 04:24:41 PM 33.4840 -111.5950 285° West 462 532 38,000  Level FlightAware ADS-B
Sat 04:25:23 PM 33.5050 -111.6980 284° West 462 532 38,000  Level FlightAware ADS-B
Sat 04:26:05 PM 33.5270 -111.8030 284° West 462 532 38,000  Level FlightAware ADS-B
Sat 04:26:49 PM 33.5490 -111.9100 284° West 462 532 38,000  Level FlightAware ADS-B
Sat 04:27:29 PM 33.5700 -112.0120 284° West 462 532 38,000  Level FlightAware ADS-B
Sat 04:28:05 PM 33.5880 -112.1000 284° West 461 531 38,000  Level FlightAware ADS-B
Sat 04:28:53 PM 33.6130 -112.2180 284° West 461 531 38,000  Level FlightAware ADS-B
Sat 04:29:27 PM 33.6300 -112.3030 284° West 461 531 38,000  Level FlightAware ADS-B
Sat 04:30:12 PM 33.6530 -112.4140 284° West 461 531 38,000  Level FlightAware ADS-B
Sat 04:30:51 PM 33.6720 -112.5100 283° West 459 528 38,000  Level FlightAware ADS-B
Sat 04:31:31 PM 33.6930 -112.6120 284° West 460 529 38,000  Level FlightAware ADS-B
Sat 04:32:15 PM 33.7150 -112.7210 284° West 460 529 38,000  Level FlightAware ADS-B
Sat 04:33:01 PM 33.7370 -112.8340 283° West 460 529 38,000  Level FlightAware ADS-B
Sat 04:33:43 PM 33.7580 -112.9400 283° West 459 528 38,000  Level FlightAware ADS-B
Sat 04:34:19 PM 33.7760 -113.0270 284° West 459 528 38,000  Level FlightAware ADS-B
Sat 04:35:01 PM 33.7960 -113.1310 283° West 460 529 38,000  Level FlightAware ADS-B
Sat 04:35:40 PM 33.8150 -113.2260 284° West 460 529 38,000  Level FlightAware ADS-B
Sat 04:36:18 PM 33.8340 -113.3220 283° West 461 531 38,000  Level FlightAware ADS-B
Sat 04:36:59 PM 33.8540 -113.4250 283° West 460 529 38,000  Level FlightAware ADS-B
Sat 04:37:39 PM 33.8740 -113.5250 284° West 458 527 38,000  Level FlightAware ADS-B
Sat 04:38:19 PM 33.8930 -113.6230 283° West 458 527 38,000  Level FlightAware ADS-B
Sat 04:38:59 PM 33.9120 -113.7220 283° West 458 527 38,000  Level FlightAware ADS-B
Sat 04:39:35 PM 33.9290 -113.8130 283° West 459 528 38,000  Level FlightAware ADS-B
Sat 04:40:21 PM 33.9430 -113.9280 278° West 454 522 38,000  Level FlightAware ADS-B
Sat 04:41:05 PM 33.9520 -114.0380 276° West 455 524 38,000  Level FlightAware ADS-B
Sat 04:41:47 PM 33.9620 -114.1430 277° West 456 525 38,000  Level FlightAware ADS-B
Sat 04:42:27 PM 33.9720 -114.2440 277° West 456 525 38,000  Level FlightAware ADS-B
Sat 04:43:11 PM 33.9840 -114.3570 277° West 457 526 38,000  Level FlightAware ADS-B
Sat 04:43:37 PM 33.9880 -114.4020 276° West 458 527 38,000  Level FlightAware ADS-B
Sat 04:44:22 PM 33.9970 -114.4930 277° West 458 527 38,000  Level FlightAware ADS-B
Sat 04:45:07 PM 34.0120 -114.6470 277° West 457 526 38,000  Level FlightAware ADS-B
Sat 04:45:46 PM 34.0190 -114.7310 276° West 457 526 38,000 -920 Level FlightAware ADS-B
Sat 04:49:28 PM 34.0470 -115.3090 274° West 459 528 34,000 -842 Descending FlightAware ADS-B
Sat 04:50:31 PM 34.0390 -115.4640 266° West 461 531 34,000  Level FlightAware ADS-B
Sat 04:51:09 PM 34.0350 -115.5470 267° West 461 531 34,000  Level FlightAware ADS-B
Sat 04:51:52 PM 34.0290 -115.6830 267° West 465 535 34,000  Level FlightAware ADS-B
Sat 04:52:29 PM 34.0250 -115.7660 267° West 466 536 34,000  Level FlightAware ADS-B
Sat 04:53:16 PM 34.0190 -115.8810 266° West 464 534 34,000 -462 Level FlightAware ADS-B
Sat 04:54:00 PM 34.0130 -115.9890 266° West 462 532 33,300 -1,229 Descending FlightAware ADS-B
Sat 04:54:39 PM 34.0070 -116.1010 266° West 467 537 32,300 -1,737 Descending FlightAware ADS-B
Sat 04:55:16 PM 34.0020 -116.1960 266° West 471 542 31,100 -2,240 Descending FlightAware ADS-B
Sat 04:55:54 PM 33.9960 -116.2980 266° West 465 535 29,500 -2,313 Descending FlightAware ADS-B
Sat 04:56:39 PM 33.9900 -116.4000 266° West 455 524 27,900 -2,329 Descending FlightAware ADS-B
Sat 04:57:19 PM 33.9840 -116.5020 266° West 446 513 26,200 -2,480 Descending FlightAware ADS-B
Sat 04:57:54 PM 33.9790 -116.5910 266° West 438 504 24,800 -2,593 Descending FlightAware ADS-B
Sat 04:58:40 PM 33.9710 -116.7170 266° West 429 494 22,700 -2,591 Descending FlightAware ADS-B
Sat 04:59:22 PM 33.9650 -116.8180 266° West 419 482 21,000 -2,386 Descending FlightAware ADS-B
Sat 05:00:08 PM 33.9590 -116.9230 266° West 409 471 19,200 -2,302 Descending FlightAware ADS-B
Sat 05:00:48 PM 33.9530 -117.0130 265° West 399 459 17,700 -1,725 Descending FlightAware ADS-B
Sat 05:01:28 PM 33.9480 -117.0990 266° West 373 429 16,900 -600 Descending FlightAware ADS-B
Sat 05:02:08 PM 33.9420 -117.1760 265° West 326 375 16,900 -571 Level FlightAware ADS-B
Sat 05:02:52 PM 33.9350 -117.2520 264° West 314 361 16,100 -1,227 Descending FlightAware ADS-B
Sat 05:03:36 PM 33.9280 -117.3300 264° West 309 356 15,100 -1,024 Descending FlightAware ADS-B
Sat 05:04:14 PM 33.9310 -117.3920 273° West 305 351 14,700 -900 Descending FlightAware ADS-B
Sat 05:04:56 PM 33.9540 -117.4600 292° West 310 357 13,900 -1,186 Descending FlightAware ADS-B
Sat 05:05:40 PM 33.9790 -117.5290 294° West 301 346 13,000 -1,286 Descending FlightAware ADS-B
Sat 05:06:20 PM 34.0010 -117.5900 294° West 296 341 12,100 -1,385 Descending FlightAware ADS-B
Sat 05:06:58 PM 34.0020 -117.6510 271° West 294 338 11,200 -1,385 Descending FlightAware ADS-B
Sat 05:07:38 PM 33.9950 -117.7160 263° West 281 323 10,300 -1,167 Descending FlightAware ADS-B
Sat 05:08:10 PM 33.9900 -117.7640 263° West 258 297 9,800 -1,080 Descending FlightAware ADS-B
Sat 05:08:28 PM 33.9880 -117.7890 264° West 253 291 9,400 -1,440 Descending FlightAware ADS-B
Sat 05:09:00 PM 33.9830 -117.8340 262° West 247 284 8,600 -1,500 Descending FlightAware ADS-B
Sat 05:09:28 PM 33.9800 -117.8720 265° West 244 281 7,900 -1,500 Descending FlightAware ADS-B
Sat 05:09:56 PM 33.9760 -117.9090 263° West 243 280 7,200 -1,385 Descending FlightAware ADS-B
Sat 05:10:20 PM 33.9720 -117.9410 261° West 243 280 6,700 -1,125 Descending FlightAware ADS-B
Sat 05:10:44 PM 33.9690 -117.9730 264° West 243 280 6,300 -1,125 Descending FlightAware ADS-B
Sat 05:11:08 PM 33.9660 -118.0050 264° West 242 278 5,800 -1,038 Descending FlightAware ADS-B
Sat 05:11:36 PM 33.9620 -118.0430 263° West 234 269 5,400 -800 Descending FlightAware ADS-B
Sat 05:12:08 PM 33.9580 -118.0830 263° West 217 250 5,000 -600 Descending FlightAware ADS-B
Sat 05:12:36 PM 33.9540 -118.1150 261° West 201 231 4,800 -667 Descending FlightAware ADS-B
Sat 05:13:02 PM 33.9520 -118.1410 265° West 199 229 4,400 -1,071 Descending FlightAware ADS-B
Sat 05:13:32 PM 33.9480 -118.1760 262° West 196 226 3,800 -1,263 Descending FlightAware ADS-B
Sat 05:13:59 PM 33.9450 -118.2060 263° West 197 227 3,200 -1,286 Descending FlightAware ADS-B
Sat 05:14:28 PM 33.9420 -118.2370 263° West 187 215 2,600 -1,102 Descending FlightAware ADS-B
Sat 05:14:48 PM 33.9390 -118.2580 260° West 177 204 2,300 -1,059 Descending FlightAware ADS-B
Sat 05:15:19 PM 33.9370 -118.2850 265° West 160 184 1,700 -964 Descending FlightAware ADS-B
Sat 05:15:44 PM 33.9340 -118.3040 259° West 147 169 1,400 -840 Descending FlightAware ADS-B
Sat 05:16:09 PM 33.9320 -118.3260 264° West 138 159 1,000 -453 Descending FlightAware ADS-B
Sat 05:16:37 PM 33.9300 -118.3440 262° West 138 159 1,000 -300 Level FlightAware ADS-B
Sat 05:17:09 PM 33.9280 -118.3650 263° West 138 159 700 -615 Descending FlightAware ADS-B
Sat 05:17:55 PM 33.9375 -118.3936 263° West 143 165 200 -652 Descending Los Angeles Center

Login

Don't have an account? Register now (free) for customized features, flight alerts, and more!